Adelanto, California
Current Conditions -  °F | °C
As of 1:55 PM on Monday 20 Oct 2014 (Local Time) from KVCV Reporting Station
Scattered Clouds Scattered Clouds  
Wind Chill: 82°   Ceiling: Unl
Heat Index: 82°   Visibility: 10mi
Dew Point: 34°   Wind: 7mph
Humidity: 17%   Direction: 180°S
Pressure: 29.92"   Gusts: NA
Location:  34.58°N, 117.41°W
Report Text: KVCV 202055Z AUTO 18006KT 10SM SCT110 28/01 A2992 RMK AO2
Loading
Personal Weather Stations






























Interactive Weather Map New forecast layout! Learn more

10-Day Weather Forecast

Advertisements
Track Severe Weather on mobile